This is the latest recevied weather packets stored in our database for station/object SP6RVW-12. If no packets are shown the sender has not sent any weather packets the latest 10 day(s).
| Time | Temp. | Humidity | Pressure | Rain* | Wind** | Luminosity | Snow |
|---|---|---|---|---|---|---|---|
| 1777737987 | 12.22° C | 43% | 1019.7 hPa | - | - | - | - |
| 1777716386 | 18.89° C | 29% | 1023.9 hPa | - | - | - | - |
| 1777694787 | 11.67° C | 43% | 1025 hPa | - | - | - | - |
| 1777673184 | 11.67° C | 43% | 1025 hPa | - | - | - | - |
| 1777651584 | 11.11° C | 43% | 1023.3 hPa | - | - | - | - |
| 1777629982 | 12.78° C | 38% | 1025 hPa | - | - | - | - |
| 1777608382 | 10.56° C | 42% | 1026 hPa | - | - | - | - |
| 1777586781 | 10.56° C | 42% | 1026.9 hPa | - | - | - | - |
| 1777565180 | 10.56° C | 41% | 1026.5 hPa | - | - | - | - |
| 1777547179 | 11.11° C | 40% | 1028.8 hPa | - | - | - | - |
| 1777543579 | 15.56° C | 31% | 1029.3 hPa | - | - | - | - |
| 1777521978 | 10.56° C | 42% | 1029.7 hPa | - | - | - | - |
| 1777500378 | 11.11° C | 42% | 1029.4 hPa | - | - | - | - |
| 1777478777 | 11.67° C | 41% | 1027.6 hPa | - | - | - | - |
| 1777457176 | 12.22° C | 40% | 1027 hPa | - | - | - | - |
| 1777435576 | 11.67° C | 42% | 1025.5 hPa | - | - | - | - |
| 1777413973 | 12.22° C | 42% | 1024.2 hPa | - | - | - | - |
| 1777392374 | 12.22° C | 42% | 1022.8 hPa | - | - | - | - |
| 1777370772 | 17.78° C | 30% | 1024.1 hPa | - | - | - | - |
| 1777349171 | 12.22° C | 41% | 1023.6 hPa | - | - | - | - |
| 1777327570 | 12.78° C | 42% | 1021 hPa | - | - | - | - |
| 1777305969 | 12.78° C | 41% | 1019.3 hPa | - | - | - | - |
| 1777284369 | 18.89° C | 29% | 1020.9 hPa | - | - | - | - |
| 1777262776 | 12.78° C | 41% | 1022.6 hPa | - | - | - | - |
| 1777241166 | 13.33° C | 41% | 1023.3 hPa | - | - | - | - |
* Rain since midnight (hover to see other rain measurements)
** Current wind speed in m/s (hover to see current wind gust speed)